createdAt,value
2022-10-02T00:01:25.656Z,12.28
2022-10-02T00:03:54.457Z,12.30
2022-10-02T00:06:23.958Z,12.28
2022-10-02T00:08:54.864Z,12.30
2022-10-02T00:11:28.296Z,12.27
2022-10-02T00:13:57.874Z,12.28
2022-10-02T00:16:30.622Z,12.30
2022-10-02T00:18:58.359Z,12.34
2022-10-02T00:21:45.868Z,12.39
2022-10-02T00:24:16.796Z,12.33
2022-10-02T00:26:51.328Z,12.32
2022-10-02T00:29:29.656Z,12.33
2022-10-02T00:32:05.191Z,12.26
2022-10-02T00:34:36.953Z,12.34
2022-10-02T00:37:09.240Z,12.33
2022-10-02T00:39:47.508Z,12.38
2022-10-02T00:42:39.566Z,12.30
2022-10-02T00:45:42.157Z,12.35
2022-10-02T00:48:24.261Z,12.38
2022-10-02T00:50:54.640Z,12.42
2022-10-02T00:53:29.622Z,12.44
2022-10-02T00:56:08.676Z,12.43
2022-10-02T00:58:49.263Z,12.40
2022-10-02T01:01:20.036Z,12.41
2022-10-02T01:03:53.169Z,12.38
2022-10-02T01:06:21.255Z,12.51
2022-10-02T01:08:48.772Z,12.43
2022-10-02T01:11:16.321Z,12.44
2022-10-02T01:13:45.358Z,12.39
2022-10-02T01:16:14.087Z,12.40
2022-10-02T01:18:44.750Z,12.51
2022-10-02T01:21:15.941Z,12.46
2022-10-02T01:23:47.913Z,12.40
2022-10-02T01:26:17.019Z,12.43
2022-10-02T01:28:44.838Z,12.45
2022-10-02T01:31:15.224Z,12.44
2022-10-02T01:33:43.985Z,12.44
2022-10-02T01:36:12.889Z,12.49
2022-10-02T01:38:40.734Z,12.48
2022-10-02T01:41:11.109Z,12.44
2022-10-02T01:43:41.332Z,12.38
2022-10-02T01:46:22.411Z,12.45
2022-10-02T01:48:56.667Z,12.40
2022-10-02T01:51:34.218Z,12.49
2022-10-02T01:54:10.234Z,12.37
2022-10-02T01:56:44.205Z,12.35
2022-10-02T01:59:21.749Z,12.41
2022-10-02T02:02:05.225Z,12.41
2022-10-02T02:04:40.459Z,12.49
2022-10-02T02:07:13.405Z,12.47
2022-10-02T02:09:43.458Z,12.55
2022-10-02T02:12:13.552Z,12.59
2022-10-02T02:14:48.530Z,12.52
2022-10-02T02:17:22.338Z,12.48
2022-10-02T02:19:53.958Z,12.46
2022-10-02T02:22:25.125Z,12.50
2022-10-02T02:24:54.410Z,12.50
2022-10-02T02:27:26.471Z,12.44
2022-10-02T02:29:57.969Z,12.43
2022-10-02T02:32:30.508Z,12.42
2022-10-02T02:35:03.085Z,12.41
2022-10-02T02:37:33.493Z,12.42
2022-10-02T02:40:04.505Z,12.43
2022-10-02T02:42:33.912Z,12.41
2022-10-02T02:45:05.749Z,12.47
2022-10-02T02:47:37.851Z,12.55
2022-10-02T02:50:09.187Z,12.43
2022-10-02T02:52:38.915Z,12.41
2022-10-02T02:55:09.742Z,12.41
2022-10-02T02:57:39.941Z,12.46
2022-10-02T03:00:09.819Z,12.53
2022-10-02T03:02:37.345Z,12.52
2022-10-02T03:05:11.298Z,12.49
2022-10-02T03:07:38.891Z,12.44
2022-10-02T03:10:10.018Z,12.50
2022-10-02T03:12:48.761Z,12.48
2022-10-02T03:15:26.590Z,12.45
2022-10-02T03:18:06.885Z,12.48
2022-10-02T03:20:39.441Z,12.57
2022-10-02T03:23:12.201Z,12.53
2022-10-02T03:25:42.971Z,12.56
2022-10-02T03:28:13.435Z,12.52
2022-10-02T03:30:43.403Z,12.50
2022-10-02T03:33:14.140Z,12.45
2022-10-02T03:35:42.611Z,12.48
2022-10-02T03:38:12.459Z,12.47
2022-10-02T03:40:40.236Z,12.45
2022-10-02T03:43:07.981Z,12.51
2022-10-02T03:45:52.010Z,12.48
2022-10-02T03:48:21.025Z,12.52
2022-10-02T03:50:50.633Z,12.52
2022-10-02T03:53:19.590Z,12.52
2022-10-02T03:55:49.911Z,12.49
2022-10-02T03:58:19.150Z,12.49
2022-10-02T04:00:52.906Z,12.56
2022-10-02T04:03:26.223Z,12.58
2022-10-02T04:05:56.271Z,12.69
2022-10-02T04:08:26.802Z,12.69
2022-10-02T04:10:58.652Z,12.69
2022-10-02T04:13:30.051Z,12.67
2022-10-02T04:16:05.482Z,12.70
2022-10-02T04:18:37.702Z,12.71
2022-10-02T04:21:09.826Z,12.76
2022-10-02T04:23:41.232Z,12.73
2022-10-02T04:26:14.411Z,12.74
2022-10-02T04:28:45.731Z,12.79
2022-10-02T04:31:14.390Z,12.80
2022-10-02T04:33:43.317Z,12.79
2022-10-02T04:36:21.806Z,12.78
2022-10-02T04:39:03.301Z,12.77
2022-10-02T04:41:44.560Z,12.81
2022-10-02T04:44:21.186Z,12.81
2022-10-02T04:47:02.398Z,12.80
2022-10-02T04:50:06.938Z,12.79
2022-10-02T04:53:00.700Z,12.81
2022-10-02T04:55:44.552Z,12.77
2022-10-02T04:58:25.062Z,12.71
2022-10-02T05:01:02.650Z,12.76
2022-10-02T05:03:44.351Z,12.77
2022-10-02T05:06:31.969Z,12.74
2022-10-02T05:09:04.922Z,12.71
2022-10-02T05:11:43.414Z,12.73
2022-10-02T05:14:21.575Z,12.78
2022-10-02T05:17:00.297Z,12.79
2022-10-02T05:19:47.389Z,12.79
2022-10-02T05:22:29.939Z,12.76
2022-10-02T05:25:11.323Z,12.78
2022-10-02T05:27:49.864Z,12.88
2022-10-02T05:30:18.824Z,12.85
2022-10-02T05:32:58.423Z,12.72
2022-10-02T05:35:38.418Z,12.80
2022-10-02T05:38:17.573Z,12.78
2022-10-02T05:40:47.937Z,12.79
2022-10-02T05:43:20.229Z,12.79
2022-10-02T05:45:51.343Z,12.74
2022-10-02T05:48:21.890Z,12.80
2022-10-02T05:50:52.703Z,12.74
2022-10-02T05:53:31.682Z,12.74
2022-10-02T05:56:01.308Z,12.76
2022-10-02T05:58:32.232Z,12.76
2022-10-02T06:01:05.193Z,12.76
2022-10-02T06:03:39.563Z,12.80
2022-10-02T06:06:12.446Z,12.81
2022-10-02T06:08:44.302Z,12.81
2022-10-02T06:11:17.056Z,12.83
2022-10-02T06:13:47.077Z,12.83
2022-10-02T06:16:19.694Z,12.78
2022-10-02T06:18:51.122Z,12.77
2022-10-02T06:21:27.135Z,12.85
2022-10-02T06:23:59.760Z,12.86
2022-10-02T06:26:38.736Z,12.86
2022-10-02T06:29:13.766Z,12.88
2022-10-02T06:31:47.684Z,12.85
2022-10-02T06:34:15.833Z,12.85
2022-10-02T06:36:51.438Z,12.95
2022-10-02T06:39:33.564Z,12.91
2022-10-02T06:42:07.498Z,13.00
2022-10-02T06:44:39.708Z,12.94
2022-10-02T06:47:22.113Z,12.92
2022-10-02T06:49:59.985Z,13.00
2022-10-02T06:52:37.963Z,12.89
2022-10-02T06:55:22.194Z,12.90
2022-10-02T06:58:03.445Z,13.02
2022-10-02T07:00:33.963Z,12.97
2022-10-02T07:03:18.974Z,12.93
2022-10-02T07:06:17.601Z,12.97
2022-10-02T07:09:15.835Z,13.02
2022-10-02T07:11:50.035Z,13.04
2022-10-02T07:14:28.006Z,12.90
2022-10-02T07:17:07.900Z,12.94
2022-10-02T07:19:49.373Z,12.94
2022-10-02T07:22:44.419Z,12.92
2022-10-02T07:25:28.790Z,13.04
2022-10-02T07:28:04.132Z,12.98
2022-10-02T07:30:35.610Z,13.06
2022-10-02T07:33:08.897Z,13.02
2022-10-02T07:35:41.958Z,13.12
2022-10-02T07:38:44.090Z,13.04
2022-10-02T07:41:20.274Z,13.03
2022-10-02T07:43:54.997Z,13.01
2022-10-02T07:46:30.945Z,12.95
2022-10-02T07:49:09.824Z,13.05
2022-10-02T07:51:50.898Z,13.24
2022-10-02T07:58:37.057Z,13.12
2022-10-02T08:01:10.333Z,13.11
2022-10-02T08:03:40.999Z,13.06
2022-10-02T08:06:08.806Z,13.09
2022-10-02T08:08:40.336Z,13.14
2022-10-02T08:11:11.662Z,13.13
2022-10-02T08:13:42.264Z,13.14
2022-10-02T08:16:13.245Z,13.18
2022-10-02T08:18:43.087Z,13.21
2022-10-02T08:21:14.307Z,13.16
2022-10-02T08:23:46.001Z,13.16
2022-10-02T08:26:17.890Z,13.15
2022-10-02T08:28:49.658Z,13.16
2022-10-02T08:31:18.727Z,13.20
2022-10-02T08:33:46.238Z,13.27
2022-10-02T08:36:48.953Z,13.19
2022-10-02T08:39:33.541Z,13.29
2022-10-02T08:42:15.788Z,13.28
2022-10-02T08:45:24.995Z,13.36
2022-10-02T08:48:31.783Z,13.44
2022-10-02T08:51:14.425Z,13.49
2022-10-02T08:54:25.855Z,13.54
2022-10-02T08:57:27.416Z,13.43
2022-10-02T09:00:18.045Z,13.35
2022-10-02T09:03:18.906Z,13.60
2022-10-02T09:06:17.221Z,13.58
2022-10-02T09:09:36.641Z,13.63
2022-10-02T09:12:28.611Z,13.58
2022-10-02T09:15:00.447Z,13.60
2022-10-02T09:17:40.676Z,13.56
2022-10-02T09:20:38.005Z,13.61
2022-10-02T09:23:33.714Z,13.76
2022-10-02T09:26:05.492Z,13.72
2022-10-02T09:29:03.078Z,13.70
2022-10-02T09:32:06.829Z,13.83
2022-10-02T09:34:58.287Z,13.89
2022-10-02T09:37:46.338Z,13.80
2022-10-02T09:40:44.683Z,13.87
2022-10-02T09:43:35.040Z,13.95
2022-10-02T09:46:21.613Z,13.85
2022-10-02T09:49:11.056Z,13.85
2022-10-02T09:52:04.669Z,13.84
2022-10-02T09:55:07.105Z,13.85
2022-10-02T09:58:02.499Z,13.80
2022-10-02T10:00:58.507Z,13.85
2022-10-02T10:03:51.115Z,13.96
2022-10-02T10:06:30.799Z,13.93
2022-10-02T10:09:27.477Z,13.89
2022-10-02T10:12:15.167Z,14.05
2022-10-02T10:15:24.198Z,13.99
2022-10-02T10:18:27.473Z,13.88
2022-10-02T10:21:14.744Z,13.85
2022-10-02T10:24:13.784Z,13.83
2022-10-02T10:27:30.028Z,13.64
2022-10-02T10:30:28.273Z,13.87
2022-10-02T10:33:24.522Z,13.99
2022-10-02T10:36:32.837Z,14.12
2022-10-02T10:39:16.386Z,14.14
2022-10-02T10:42:12.795Z,14.28
2022-10-02T10:45:04.260Z,14.07
2022-10-02T10:47:55.679Z,14.02
2022-10-02T10:50:44.370Z,13.90
2022-10-02T10:53:36.175Z,13.95
2022-10-02T10:56:19.302Z,13.90
2022-10-02T10:59:05.196Z,13.96
2022-10-02T11:01:39.427Z,14.00
2022-10-02T11:04:27.797Z,14.10
2022-10-02T11:07:10.865Z,13.89
2022-10-02T11:10:05.121Z,13.90
2022-10-02T11:13:05.596Z,13.80
2022-10-02T11:16:06.357Z,13.82
2022-10-02T11:18:49.159Z,13.89
2022-10-02T11:21:39.705Z,14.02
2022-10-02T11:24:28.293Z,13.95
2022-10-02T11:27:34.096Z,14.11
2022-10-02T11:30:22.268Z,14.10
2022-10-02T11:33:20.340Z,14.00
2022-10-02T11:36:04.154Z,13.95
2022-10-02T11:39:00.445Z,13.97
2022-10-02T11:42:06.072Z,13.96
2022-10-02T11:44:54.577Z,14.08
2022-10-02T11:47:51.366Z,14.07
2022-10-02T11:50:46.100Z,14.00
2022-10-02T11:53:49.398Z,13.94
2022-10-02T11:56:47.133Z,13.95
2022-10-02T11:59:29.689Z,14.06
2022-10-02T12:02:04.533Z,14.16
2022-10-02T12:04:44.387Z,14.19
2022-10-02T12:07:25.905Z,14.22
2022-10-02T12:10:16.844Z,14.20
2022-10-02T12:12:51.603Z,14.24
2022-10-02T12:15:27.798Z,14.35
2022-10-02T12:18:09.070Z,14.01
2022-10-02T12:21:07.567Z,13.98
2022-10-02T12:24:03.406Z,14.05
2022-10-02T12:27:03.768Z,14.01
2022-10-02T12:30:04.283Z,14.14
2022-10-02T12:32:48.095Z,14.18
2022-10-02T12:35:27.606Z,14.23
2022-10-02T12:37:59.971Z,14.26
2022-10-02T12:40:32.786Z,14.31
2022-10-02T12:43:20.098Z,14.43
2022-10-02T12:46:13.526Z,14.46
2022-10-02T12:48:50.217Z,14.55
2022-10-02T12:51:35.419Z,14.65
2022-10-02T12:54:24.194Z,14.62
2022-10-02T12:57:47.759Z,14.64
2022-10-02T13:00:17.983Z,14.51
2022-10-02T13:03:05.468Z,14.53
2022-10-02T13:05:50.728Z,14.53
2022-10-02T13:08:49.119Z,14.34
2022-10-02T13:11:27.967Z,14.42
2022-10-02T13:14:06.666Z,14.43
2022-10-02T13:16:54.759Z,14.61
2022-10-02T13:19:30.414Z,14.61
2022-10-02T13:22:02.494Z,14.66
2022-10-02T13:24:42.710Z,14.73
2022-10-02T13:27:19.012Z,14.63
2022-10-02T13:29:54.974Z,14.58
2022-10-02T13:32:38.246Z,14.69
2022-10-02T13:35:33.238Z,14.50
2022-10-02T13:38:13.585Z,14.47
2022-10-02T13:40:49.367Z,14.44
2022-10-02T13:43:34.835Z,14.50
2022-10-02T13:46:10.275Z,14.43
2022-10-02T13:48:46.959Z,14.43
2022-10-02T13:51:20.574Z,14.24
2022-10-02T13:54:04.486Z,14.29
2022-10-02T13:56:47.368Z,14.41
2022-10-02T13:59:34.183Z,14.33
2022-10-02T14:02:13.614Z,14.37
2022-10-02T14:04:51.146Z,14.47
2022-10-02T14:07:31.898Z,14.47
2022-10-02T14:10:05.241Z,14.41
2022-10-02T14:12:41.763Z,14.46
2022-10-02T14:15:31.919Z,14.55
2022-10-02T14:18:16.644Z,14.54
2022-10-02T14:20:51.256Z,14.62
2022-10-02T14:23:34.188Z,14.59
2022-10-02T14:26:09.441Z,14.52
2022-10-02T14:28:48.829Z,14.47
2022-10-02T14:31:47.111Z,14.41
2022-10-02T14:34:34.581Z,14.61
2022-10-02T14:37:24.200Z,14.59
2022-10-02T14:39:51.921Z,14.63
2022-10-02T14:42:41.130Z,14.50
2022-10-02T14:45:37.755Z,14.48
2022-10-02T14:48:20.976Z,14.55
2022-10-02T14:51:06.469Z,14.57
2022-10-02T14:53:46.269Z,14.54
2022-10-02T14:56:46.749Z,14.53
2022-10-02T14:59:23.681Z,14.51
2022-10-02T15:02:11.878Z,14.56
2022-10-02T15:04:46.014Z,14.40
2022-10-02T15:07:15.084Z,14.42
2022-10-02T15:10:06.750Z,14.41
2022-10-02T15:12:43.688Z,14.44
2022-10-02T15:15:14.292Z,14.48
2022-10-02T15:17:57.448Z,14.39
2022-10-02T15:20:30.962Z,14.35
2022-10-02T15:23:00.754Z,14.43
2022-10-02T15:25:50.045Z,14.38
2022-10-02T15:28:36.441Z,14.43
2022-10-02T15:31:16.327Z,14.29
2022-10-02T15:33:47.830Z,14.35
2022-10-02T15:36:29.857Z,14.47
2022-10-02T15:39:21.556Z,14.38
2022-10-02T15:41:51.447Z,14.21
2022-10-02T15:45:02.015Z,14.17
2022-10-02T15:47:42.205Z,14.27
2022-10-02T15:50:20.038Z,14.22
2022-10-02T15:52:54.775Z,14.11
2022-10-02T15:55:29.927Z,14.09
2022-10-02T15:58:21.194Z,14.02
2022-10-02T16:01:08.734Z,13.97
2022-10-02T16:03:43.143Z,13.97
2022-10-02T16:06:19.470Z,13.88
2022-10-02T16:09:05.660Z,13.98
2022-10-02T16:11:55.140Z,13.93
2022-10-02T16:14:30.603Z,13.93
2022-10-02T16:17:23.963Z,14.08
2022-10-02T16:20:05.034Z,14.12
2022-10-02T16:22:44.802Z,14.15
2022-10-02T16:25:25.308Z,14.05
2022-10-02T16:27:54.611Z,13.99
2022-10-02T16:30:24.223Z,13.87
2022-10-02T16:33:11.331Z,13.73
2022-10-02T16:36:04.109Z,13.68
2022-10-02T16:38:43.000Z,13.67
2022-10-02T16:41:32.860Z,13.66
2022-10-02T16:44:07.756Z,13.87
2022-10-02T16:46:38.476Z,13.95
2022-10-02T16:49:15.612Z,13.86
2022-10-02T16:51:56.735Z,13.90
2022-10-02T16:54:31.263Z,13.66
2022-10-02T16:57:02.022Z,13.51
2022-10-02T16:59:32.196Z,13.44
2022-10-02T17:02:17.787Z,13.38
2022-10-02T17:05:00.282Z,13.31
2022-10-02T17:07:32.736Z,13.27
2022-10-02T17:10:08.818Z,13.27
2022-10-02T17:12:45.112Z,13.23
2022-10-02T17:15:19.188Z,13.22
2022-10-02T17:17:55.079Z,13.42
2022-10-02T17:20:25.391Z,13.32
2022-10-02T17:22:58.454Z,13.43
2022-10-02T17:25:31.333Z,13.28
2022-10-02T17:28:02.851Z,13.22
2022-10-02T17:30:46.386Z,13.30
2022-10-02T17:33:21.545Z,13.28
2022-10-02T17:35:57.008Z,13.33
2022-10-02T17:38:54.386Z,13.34
2022-10-02T17:41:34.975Z,13.12
2022-10-02T17:44:13.835Z,13.14
2022-10-02T17:46:54.807Z,13.06
2022-10-02T17:49:29.736Z,12.99
2022-10-02T17:52:24.568Z,12.84
2022-10-02T17:55:20.109Z,12.84
2022-10-02T17:57:59.356Z,12.97
2022-10-02T18:00:27.624Z,12.91
2022-10-02T18:03:26.861Z,13.02
2022-10-02T18:05:59.445Z,12.93
2022-10-02T18:08:49.393Z,12.92
2022-10-02T18:11:31.657Z,12.89
2022-10-02T18:14:09.845Z,12.84
2022-10-02T18:16:47.869Z,12.71
2022-10-02T18:19:26.283Z,12.73
2022-10-02T18:22:05.379Z,12.76
2022-10-02T18:24:44.859Z,12.69
2022-10-02T18:27:26.106Z,12.70
2022-10-02T18:30:08.700Z,12.76
2022-10-02T18:32:50.943Z,12.48
2022-10-02T18:35:28.413Z,12.45
2022-10-02T18:38:07.350Z,12.56
2022-10-02T18:40:48.517Z,12.28
2022-10-02T18:43:41.266Z,12.16
2022-10-02T18:46:20.368Z,12.23
2022-10-02T18:49:07.952Z,12.22
2022-10-02T18:52:05.110Z,11.93
2022-10-02T18:54:41.834Z,12.01
2022-10-02T18:57:25.500Z,12.07
2022-10-02T19:00:01.819Z,11.99
2022-10-02T19:02:43.987Z,11.88
2022-10-02T19:05:25.752Z,11.98
2022-10-02T19:07:57.916Z,12.08
2022-10-02T19:10:28.857Z,12.06
2022-10-02T19:13:02.496Z,11.73
2022-10-02T19:15:32.844Z,11.60
2022-10-02T19:18:03.685Z,11.56
2022-10-02T19:20:49.317Z,11.46
2022-10-02T19:23:21.911Z,11.51
2022-10-02T19:25:50.684Z,11.63
2022-10-02T19:28:19.890Z,11.72
2022-10-02T19:30:52.298Z,11.68
2022-10-02T19:33:32.946Z,11.80
2022-10-02T19:36:04.422Z,11.69
2022-10-02T19:38:35.445Z,11.54
2022-10-02T19:41:09.845Z,11.60
2022-10-02T19:43:49.220Z,11.81
2022-10-02T19:46:19.821Z,11.93
2022-10-02T19:48:56.136Z,11.98
2022-10-02T19:51:24.168Z,11.92
2022-10-02T19:53:54.729Z,11.87
2022-10-02T19:56:28.277Z,12.03
2022-10-02T19:58:58.627Z,12.24
2022-10-02T20:01:28.142Z,12.17
2022-10-02T20:03:58.656Z,12.25
2022-10-02T20:06:28.204Z,12.37
2022-10-02T20:09:00.486Z,12.38
2022-10-02T20:11:32.561Z,12.46
2022-10-02T20:14:02.894Z,12.52
2022-10-02T20:16:48.347Z,12.52
2022-10-02T20:19:19.635Z,12.52
2022-10-02T20:21:49.985Z,12.45
2022-10-02T20:24:22.131Z,12.49
2022-10-02T20:26:51.186Z,12.38
2022-10-02T20:29:21.361Z,12.34
2022-10-02T20:31:51.670Z,12.24
2022-10-02T20:34:26.028Z,12.24
2022-10-02T20:36:57.268Z,12.12
2022-10-02T20:39:29.067Z,12.04
2022-10-02T20:41:59.787Z,12.24
2022-10-02T20:44:29.189Z,12.28
2022-10-02T20:47:34.602Z,12.24
2022-10-02T20:50:26.645Z,12.13
2022-10-02T20:53:30.593Z,12.20
2022-10-02T20:56:00.860Z,12.18
2022-10-02T20:58:56.303Z,12.08
2022-10-02T21:01:29.593Z,11.94
2022-10-02T21:04:36.722Z,11.91
2022-10-02T21:07:28.997Z,11.96
2022-10-02T21:10:29.119Z,11.95
2022-10-02T21:13:27.477Z,11.96
2022-10-02T21:16:11.061Z,11.85
2022-10-02T21:19:04.915Z,11.85
2022-10-02T21:22:11.180Z,11.78
2022-10-02T21:25:09.059Z,11.79
2022-10-02T21:28:24.133Z,11.68
2022-10-02T21:30:59.661Z,11.61
2022-10-02T21:33:30.856Z,11.49
2022-10-02T21:36:04.337Z,11.46
2022-10-02T21:39:04.456Z,11.31
2022-10-02T21:42:09.544Z,11.06
2022-10-02T21:45:14.768Z,10.87
2022-10-02T21:48:15.733Z,10.76
2022-10-02T21:51:16.899Z,10.78
2022-10-02T21:53:59.781Z,10.71
2022-10-02T21:56:57.087Z,10.70
2022-10-02T21:59:56.160Z,10.64
2022-10-02T22:03:04.330Z,10.76
2022-10-02T22:06:14.847Z,10.63
2022-10-02T22:09:08.429Z,10.56
2022-10-02T22:11:43.151Z,10.54
2022-10-02T22:14:13.296Z,10.56
2022-10-02T22:16:51.052Z,10.45
2022-10-02T22:19:33.316Z,10.46
2022-10-02T22:22:11.366Z,10.34
2022-10-02T22:24:56.441Z,10.38
2022-10-02T22:27:36.702Z,10.36
2022-10-02T22:30:05.377Z,10.49
2022-10-02T22:33:04.724Z,10.52
2022-10-02T22:35:42.146Z,10.58
2022-10-02T22:38:15.226Z,10.69
2022-10-02T22:40:52.184Z,10.76
2022-10-02T22:43:28.922Z,10.89
2022-10-02T22:45:59.991Z,10.95
2022-10-02T22:48:34.633Z,10.95
2022-10-02T22:51:08.086Z,11.00
2022-10-02T22:53:40.188Z,11.03
2022-10-02T22:56:21.371Z,11.01
2022-10-02T22:58:56.463Z,10.99
2022-10-02T23:01:29.119Z,10.98
2022-10-02T23:03:59.959Z,10.88
2022-10-02T23:06:31.499Z,10.84
2022-10-02T23:09:04.683Z,10.79
2022-10-02T23:11:39.161Z,10.68
2022-10-02T23:14:16.982Z,10.68
2022-10-02T23:16:49.326Z,10.69
2022-10-02T23:19:21.023Z,10.85
2022-10-02T23:21:51.632Z,10.84
2022-10-02T23:24:28.504Z,10.64
2022-10-02T23:27:07.417Z,10.78
2022-10-02T23:29:43.933Z,10.98
2022-10-02T23:32:18.932Z,11.01
2022-10-02T23:34:52.429Z,11.00
2022-10-02T23:37:23.922Z,10.89
2022-10-02T23:39:57.984Z,10.97
2022-10-02T23:42:31.896Z,10.95
2022-10-02T23:45:04.044Z,10.98
2022-10-02T23:47:39.134Z,11.13
2022-10-02T23:50:19.932Z,11.04
2022-10-02T23:53:00.258Z,10.86
2022-10-02T23:55:45.269Z,10.76
2022-10-02T23:58:28.738Z,10.80
